Time;durP1;ratioP1;P1;durP2;ratioP2;P2;SDS_P1;SDS_P2;PMS_P1;PMS_P2;Temp;Humidity;BMP_temperature;BMP_pressure;BME280_temperature;BME280_humidity;BME280_pressure;Samples;Min_cycle;Max_cycle;Signal;HPM_P1;HPM_P2
2022/11/17 00:01:07;;;;;;;8.77;6.43;;;;;;;3.86;75.90;97251.25;5090474;28;20501;-68
2022/11/17 00:03:33;;;;;;;8.88;7.97;;;;;;;3.85;75.82;97251.50;5090091;28;20055;-68
2022/11/17 00:06:05;;;;;;;9.40;8.00;;;;;;;3.82;75.63;97244.75;5090032;28;20059;-68
2022/11/17 00:08:32;;;;;;;6.53;5.78;;;;;;;3.83;75.45;97243.66;5089029;28;20051;-69
2022/11/17 00:11:01;;;;;;;4.78;3.40;;;;;;;3.85;76.10;97248.78;5089753;28;20028;-69
2022/11/17 00:16:18;;;;;;;8.88;7.95;;;;;;;3.86;75.60;97250.41;5088609;28;20514;-68
2022/11/17 00:21:28;;;;;;;5.25;3.47;;;;;;;3.86;76.27;97248.53;5090611;28;20046;-69
2022/11/17 00:23:55;;;;;;;3.42;2.80;;;;;;;3.85;75.36;97251.50;5090245;28;20036;-67
2022/11/17 00:26:25;;;;;;;3.10;2.80;;;;;;;3.82;75.38;97242.03;5088437;28;20036;-67
2022/11/17 00:29:03;;;;;;;4.18;3.38;;;;;;;3.82;75.67;97249.34;5087958;28;20043;-67
2022/11/17 00:34:20;;;;;;;5.13;3.08;;;;;;;3.78;76.25;97253.72;5089285;28;20409;-69
2022/11/17 00:36:52;;;;;;;7.18;6.03;;;;;;;3.76;76.17;97255.91;5086695;28;20408;-69
2022/11/17 00:39:19;;;;;;;7.05;4.18;;;;;;;3.76;75.40;97245.06;5087727;28;20104;-69
2022/11/17 00:41:45;;;;;;;8.00;6.57;;;;;;;3.72;76.40;97242.91;5086573;28;20032;-70
2022/11/17 00:44:11;;;;;;;19.83;11.93;;;;;;;3.73;75.88;97232.88;5089843;28;20498;-69
2022/11/17 00:46:37;;;;;;;21.15;12.52;;;;;;;3.74;76.54;97248.06;5089714;28;20123;-68
2022/11/17 00:49:04;;;;;;;22.23;11.98;;;;;;;3.79;76.20;97252.63;5090150;28;20038;-68
2022/11/17 00:51:29;;;;;;;14.30;9.00;;;;;;;3.79;76.20;97250.75;5088297;28;20111;-69
2022/11/17 00:53:55;;;;;;;10.45;7.25;;;;;;;3.83;76.14;97248.25;5089843;28;20468;-70
2022/11/17 00:56:20;;;;;;;9.85;5.65;;;;;;;3.85;76.38;97255.03;5088873;28;20101;-69
2022/11/17 00:58:45;;;;;;;9.13;5.72;;;;;;;3.85;76.02;97240.66;5088342;28;20067;-70
2022/11/17 01:01:11;;;;;;;10.73;7.38;;;;;;;3.87;76.45;97249.31;5073460;28;20036;-69
2022/11/17 01:03:37;;;;;;;8.20;5.30;;;;;;;3.87;75.97;97244.69;5097248;28;20047;-68
2022/11/17 01:06:09;;;;;;;7.47;5.72;;;;;;;3.90;76.39;97237.91;5089627;28;20036;-69
2022/11/17 01:08:34;;;;;;;11.25;6.55;;;;;;;3.90;76.38;97231.66;5099401;28;20035;-69
2022/11/17 01:11:05;;;;;;;7.43;5.07;;;;;;;3.86;75.98;97229.53;5092575;28;20491;-68
2022/11/17 01:13:30;;;;;;;9.77;6.40;;;;;;;3.85;76.06;97233.34;5088159;28;20032;-68
2022/11/17 01:16:01;;;;;;;8.75;5.47;;;;;;;3.83;75.79;97240.94;5091342;28;20035;-70
2022/11/17 01:18:26;;;;;;;9.07;5.85;;;;;;;3.83;75.71;97251.81;5091465;28;20034;-71
2022/11/17 01:20:52;;;;;;;9.63;6.60;;;;;;;3.86;75.95;97255.84;5088532;28;20032;-69
2022/11/17 01:23:17;;;;;;;7.30;5.50;;;;;;;3.86;75.95;97253.13;5090961;28;20032;-69
2022/11/17 01:25:42;;;;;;;6.82;5.65;;;;;;;3.86;75.88;97245.00;5091082;28;20028;-70
2022/11/17 01:28:08;;;;;;;8.95;6.90;;;;;;;3.85;76.00;97249.63;5087831;28;20067;-69
2022/11/17 01:30:33;;;;;;;7.00;5.28;;;;;;;3.86;75.99;97245.00;5088778;28;20035;-70
2022/11/17 01:32:58;;;;;;;7.28;4.97;;;;;;;3.87;76.08;97244.69;5088888;28;20460;-70
2022/11/17 01:35:24;;;;;;;7.10;5.07;;;;;;;3.88;76.48;97243.59;5088544;28;20031;-70
2022/11/17 01:37:49;;;;;;;8.02;4.80;;;;;;;3.88;75.98;97234.66;5089462;28;20042;-70
2022/11/17 01:40:15;;;;;;;10.32;5.18;;;;;;;3.88;76.27;97240.09;5089495;28;20036;-70
2022/11/17 01:42:40;;;;;;;5.28;3.90;;;;;;;3.85;75.92;97236.06;5087148;28;20491;-70
2022/11/17 01:45:24;;;;;;;6.82;4.65;;;;;;;3.81;75.98;97236.88;5093021;28;20066;-70
2022/11/17 01:48:12;;;;;;;6.50;4.55;;;;;;;3.80;76.07;97246.94;5110814;28;20030;-70
2022/11/17 01:50:46;;;;;;;7.55;4.75;;;;;;;3.83;76.29;97240.94;5093839;28;20047;-69
2022/11/17 01:53:15;;;;;;;8.35;6.20;;;;;;;3.85;76.43;97238.75;5089928;28;20043;-70
2022/11/17 01:55:46;;;;;;;6.72;4.68;;;;;;;3.87;76.30;97243.91;5090560;28;20078;-70
2022/11/17 01:58:20;;;;;;;5.65;4.78;;;;;;;3.86;75.83;97240.38;5094632;28;20381;-69
2022/11/17 02:00:46;;;;;;;7.43;5.47;;;;;;;3.87;76.31;97244.69;5090629;28;20093;-69
2022/11/17 02:03:12;;;;;;;6.32;5.40;;;;;;;3.88;76.33;97246.31;5090076;28;20074;-69
2022/11/17 02:05:56;;;;;;;6.88;5.32;;;;;;;3.87;76.29;97252.03;5090020;28;20423;-70
2022/11/17 02:08:25;;;;;;;5.88;4.60;;;;;;;3.90;76.46;97251.47;5088215;28;20268;-69
2022/11/17 02:10:52;;;;;;;7.75;5.05;;;;;;;3.90;76.03;97247.94;5089087;28;20103;-69
2022/11/17 02:13:19;;;;;;;6.43;4.65;;;;;;;3.88;76.29;97251.75;5087314;28;20016;-70
2022/11/17 02:15:44;;;;;;;5.35;4.15;;;;;;;3.87;76.35;97236.56;5090006;28;20028;-69
2022/11/17 02:18:10;;;;;;;5.35;4.18;;;;;;;3.86;75.94;97240.38;5092736;28;20024;-70
2022/11/17 02:21:13;;;;;;;6.93;4.35;;;;;;;3.83;75.71;97245.53;5093727;28;20094;-70
2022/11/17 02:24:06;;;;;;;6.53;3.80;;;;;;;3.83;75.61;97240.94;5092027;28;20668;-70
2022/11/17 02:27:03;;;;;;;4.82;3.35;;;;;;;3.79;76.32;97245.31;5093908;28;20024;-69
2022/11/17 02:29:40;;;;;;;4.65;3.70;;;;;;;3.77;75.89;97239.34;5092928;28;20031;-71
2022/11/17 02:32:22;;;;;;;3.58;2.95;;;;;;;3.77;76.03;97236.66;5092438;28;20119;-70
2022/11/17 02:35:01;;;;;;;5.32;3.25;;;;;;;3.80;76.07;97230.66;5092036;28;20062;-70
2022/11/17 02:37:35;;;;;;;5.13;3.20;;;;;;;3.80;76.22;97232.56;5090083;28;20103;-70
2022/11/17 02:40:09;;;;;;;5.88;3.92;;;;;;;3.82;76.29;97228.47;5093394;28;20546;-70
2022/11/17 02:45:32;;;;;;;5.45;3.70;;;;;;;3.86;76.29;97229.53;5089740;28;20507;-71
2022/11/17 02:48:01;;;;;;;3.20;2.90;;;;;;;3.87;76.16;97222.19;5094982;28;20047;-70
2022/11/17 02:50:28;;;;;;;10.05;3.00;;;;;;;3.87;76.17;97225.69;5072888;28;20020;-71
2022/11/17 02:52:54;;;;;;;3.88;3.00;;;;;;;3.90;76.11;97220.81;5092476;28;20028;-71
2022/11/17 02:55:20;;;;;;;4.28;3.10;;;;;;;3.91;76.18;97208.88;5091454;28;20035;-70
2022/11/17 02:57:45;;;;;;;4.35;3.00;;;;;;;3.88;75.78;97213.75;5092603;28;20479;-71
2022/11/17 03:00:16;;;;;;;4.65;3.13;;;;;;;3.87;75.77;97214.84;5090542;28;20157;-70
2022/11/17 03:02:50;;;;;;;3.40;2.70;;;;;;;3.89;75.71;97211.88;5092605;28;20055;-70
2022/11/17 03:05:57;;;;;;;3.28;2.67;;;;;;;3.88;76.49;97218.38;5090378;28;20071;-71
2022/11/17 03:08:51;;;;;;;2.78;2.28;;;;;;;3.85;75.78;97225.19;5090725;28;20070;-70
2022/11/17 03:11:22;;;;;;;2.65;2.05;;;;;;;3.84;76.15;97215.44;5091718;28;20071;-70
2022/11/17 03:14:01;;;;;;;4.00;2.70;;;;;;;3.81;76.09;97210.59;5088889;28;20047;-68
2022/11/17 03:16:34;;;;;;;2.63;1.90;;;;;;;3.80;75.54;97213.56;5090874;28;20034;-69
2022/11/17 03:19:10;;;;;;;2.78;2.50;;;;;;;3.78;76.02;97205.72;5090965;28;20365;-68
2022/11/17 03:22:03;;;;;;;2.80;2.05;;;;;;;3.75;76.04;97205.47;5090552;28;20020;-69
2022/11/17 03:24:42;;;;;;;2.75;2.05;;;;;;;3.76;76.00;97201.66;5089764;28;20020;-70
2022/11/17 03:27:14;;;;;;;3.15;2.33;;;;;;;3.73;75.94;97214.69;5091007;28;20034;-69
2022/11/17 03:29:43;;;;;;;3.17;2.00;;;;;;;3.73;76.52;97217.41;5091124;28;20038;-69
2022/11/17 03:32:10;;;;;;;2.45;2.05;;;;;;;3.73;75.95;97203.84;5091577;28;20020;-68
2022/11/17 03:34:48;;;;;;;2.63;1.80;;;;;;;3.70;76.14;97209.81;5091079;28;20027;-68
2022/11/17 03:37:16;;;;;;;2.42;1.75;;;;;;;3.70;76.57;97207.13;5091082;28;20032;-68
2022/11/17 03:40:00;;;;;;;3.25;1.90;;;;;;;3.71;76.53;97210.66;5092381;28;20142;-69
2022/11/17 03:42:29;;;;;;;2.70;2.10;;;;;;;3.69;76.11;97213.63;5091470;28;20027;-69
2022/11/17 03:45:00;;;;;;;3.27;1.90;;;;;;;3.69;76.22;97220.97;5090955;28;20102;-69
2022/11/17 03:47:28;;;;;;;3.10;1.98;;;;;;;3.67;75.63;97215.81;5090710;28;20039;-68
2022/11/17 03:50:00;;;;;;;2.58;2.00;;;;;;;3.66;75.72;97213.41;5088029;28;20028;-68
2022/11/17 03:52:28;;;;;;;3.33;2.00;;;;;;;3.66;76.17;97210.69;5090055;28;20020;-68
2022/11/17 03:54:54;;;;;;;2.53;2.00;;;;;;;3.65;76.09;97209.88;5093043;28;20032;-69
2022/11/17 03:57:58;;;;;;;2.53;1.80;;;;;;;3.63;75.89;97211.25;5089225;28;20514;-68
2022/11/17 04:00:24;;;;;;;2.53;1.90;;;;;;;3.63;76.58;97211.25;5087323;28;20020;-68
2022/11/17 04:02:54;;;;;;;3.35;2.10;;;;;;;3.62;76.29;97213.16;5088777;28;20032;-68
2022/11/17 04:05:20;;;;;;;3.30;2.42;;;;;;;3.62;76.18;97215.03;5088082;28;20126;-68
2022/11/17 04:07:46;;;;;;;2.92;2.13;;;;;;;3.63;76.12;97211.25;5087954;28;20032;-68
2022/11/17 04:10:13;;;;;;;2.95;1.92;;;;;;;3.62;76.62;97213.16;5088260;28;20024;-68
2022/11/17 04:18:07;;;;;;;2.65;2.40;;;;;;;3.65;76.40;97211.78;5089562;28;20388;-68
2022/11/17 04:20:36;;;;;;;2.78;2.40;;;;;;;3.65;76.30;97212.59;5090043;28;20020;-68
2022/11/17 04:23:06;;;;;;;3.30;1.98;;;;;;;3.66;76.25;97216.94;5090424;28;20031;-68
2022/11/17 04:28:36;;;;;;;3.50;2.28;;;;;;;3.64;76.72;97223.72;5089875;28;20039;-68
2022/11/17 04:31:18;;;;;;;2.30;1.95;;;;;;;3.64;76.59;97224.53;5090298;28;20028;-68
2022/11/17 04:33:50;;;;;;;3.22;2.67;;;;;;;3.63;76.55;97228.34;5088313;28;20024;-68
2022/11/17 04:36:18;;;;;;;2.60;2.22;;;;;;;3.65;75.99;97228.88;5091132;28;20055;-68
2022/11/17 04:38:46;;;;;;;3.42;2.90;;;;;;;3.67;75.88;97234.00;5088916;28;20499;-68
2022/11/17 04:43:57;;;;;;;3.50;2.33;;;;;;;3.68;76.23;97219.34;5089661;28;20121;-67
2022/11/17 04:46:24;;;;;;;2.78;2.08;;;;;;;3.68;76.14;97232.91;5089665;28;20046;-68
2022/11/17 04:48:52;;;;;;;4.80;2.40;;;;;;;3.67;76.08;97221.25;5088805;28;20460;-68
2022/11/17 04:51:17;;;;;;;3.08;2.33;;;;;;;3.69;76.55;97237.25;5086750;28;20476;-68
2022/11/17 04:53:43;;;;;;;2.90;2.45;;;;;;;3.72;76.47;97228.53;5089256;28;20020;-68
2022/11/17 04:56:09;;;;;;;2.80;2.15;;;;;;;3.74;76.94;97231.78;5092082;28;20058;-68
2022/11/17 04:58:35;;;;;;;2.92;2.05;;;;;;;3.75;76.37;97232.59;5085832;28;20047;-67
2022/11/17 05:01:12;;;;;;;3.08;1.98;;;;;;;3.77;76.06;97227.69;5070583;28;20434;-68
2022/11/17 05:03:39;;;;;;;2.25;1.95;;;;;;;3.77;76.14;97227.69;5089199;28;20034;-68
2022/11/17 05:06:04;;;;;;;2.10;1.85;;;;;;;3.79;76.26;97225.50;5088925;28;20032;-67
2022/11/17 05:08:29;;;;;;;3.65;1.83;;;;;;;3.79;76.79;97228.22;5088670;28;20019;-68
2022/11/17 05:13:42;;;;;;;2.55;2.00;;;;;;;3.83;76.14;97215.72;5087521;28;20494;-67
2022/11/17 05:18:51;;;;;;;4.35;2.55;;;;;;;3.84;76.66;97220.88;5086772;28;20066;-67
2022/11/17 05:21:16;;;;;;;3.47;2.40;;;;;;;3.82;76.55;97223.06;5089564;28;20047;-68
2022/11/17 05:23:54;;;;;;;4.05;2.47;;;;;;;3.82;75.95;97225.78;5088731;28;20028;-67
2022/11/17 05:26:24;;;;;;;3.17;2.38;;;;;;;3.81;76.28;97232.28;5088772;28;20028;-68
2022/11/17 05:28:50;;;;;;;4.20;2.30;;;;;;;3.79;76.71;97226.31;5087596;28;20050;-68
2022/11/17 05:31:16;;;;;;;2.95;2.20;;;;;;;3.80;76.40;97230.66;5089758;28;20020;-68
2022/11/17 05:33:42;;;;;;;3.85;2.55;;;;;;;3.81;76.67;97226.84;5090325;28;20024;-68
2022/11/17 05:36:08;;;;;;;3.20;2.25;;;;;;;3.85;76.66;97241.47;5069917;28;20031;-68
2022/11/17 05:38:33;;;;;;;4.40;3.70;;;;;;;3.87;76.37;97239.25;5087181;28;20052;-68
2022/11/17 05:40:59;;;;;;;4.22;3.10;;;;;;;3.92;76.32;97237.59;5092571;28;20111;-68
2022/11/17 05:43:25;;;;;;;4.30;3.50;;;;;;;3.95;76.43;97232.44;5096784;28;20036;-67
2022/11/17 05:45:50;;;;;;;3.83;2.53;;;;;;;3.98;76.09;97239.19;5091279;28;20078;-68
2022/11/17 05:48:16;;;;;;;4.75;2.65;;;;;;;3.98;76.26;97240.03;5098358;28;20033;-68
2022/11/17 05:50:41;;;;;;;3.25;2.63;;;;;;;4.00;76.14;97245.16;5088489;28;20115;-67
2022/11/17 05:53:07;;;;;;;3.00;2.63;;;;;;;3.99;76.24;97249.78;5087010;28;20110;-68
2022/11/17 05:55:32;;;;;;;2.90;2.15;;;;;;;4.01;76.38;97246.78;5088560;28;20079;-68
2022/11/17 05:58:03;;;;;;;4.03;2.42;;;;;;;3.99;76.82;97244.34;5088986;28;20034;-68
2022/11/17 06:00:30;;;;;;;3.78;2.00;;;;;;;3.99;76.38;97248.94;5087908;28;20046;-68
2022/11/17 06:03:02;;;;;;;3.33;2.83;;;;;;;4.01;76.70;97252.19;5087049;28;20034;-68
2022/11/17 06:05:27;;;;;;;2.53;1.88;;;;;;;4.01;76.11;97258.44;5088860;28;20028;-68
2022/11/17 06:07:56;;;;;;;4.43;2.72;;;;;;;3.99;75.95;97263.34;5087264;28;20036;-68
2022/11/17 06:10:21;;;;;;;2.58;1.52;;;;;;;3.99;76.50;97254.38;5089011;28;20539;-68
2022/11/17 06:12:47;;;;;;;4.10;2.42;;;;;;;3.98;76.62;97259.00;5090108;28;20103;-68
2022/11/17 06:15:12;;;;;;;4.57;2.47;;;;;;;3.97;76.21;97259.28;5069967;28;20435;-68
2022/11/17 06:17:45;;;;;;;2.97;2.03;;;;;;;3.95;75.91;97251.44;5088242;28;20036;-68
2022/11/17 06:20:24;;;;;;;3.38;2.13;;;;;;;3.93;75.80;97253.63;5088088;28;20076;-67
2022/11/17 06:22:50;;;;;;;2.93;2.03;;;;;;;3.94;76.71;97246.28;5071494;28;20028;-67
2022/11/17 06:25:18;;;;;;;3.60;1.98;;;;;;;3.92;76.50;97248.47;5100864;28;20476;-68
2022/11/17 06:27:45;;;;;;;3.53;2.38;;;;;;;3.92;76.31;97253.88;5088964;28;20032;-68
2022/11/17 06:30:10;;;;;;;3.38;2.60;;;;;;;3.90;76.56;97256.06;5089006;28;20033;-67
2022/11/17 06:32:38;;;;;;;3.50;2.25;;;;;;;3.88;76.17;97248.22;5097905;28;20463;-67
2022/11/17 06:35:07;;;;;;;3.00;1.98;;;;;;;3.84;76.41;97248.00;5089155;28;20035;-67
2022/11/17 06:37:32;;;;;;;4.18;2.50;;;;;;;3.80;76.49;97248.81;5087158;28;20108;-68
2022/11/17 06:39:57;;;;;;;2.92;2.13;;;;;;;3.79;76.72;97253.44;5088542;28;20114;-67
2022/11/17 06:43:02;;;;;;;3.10;2.05;;;;;;;3.78;75.96;97259.97;5087995;28;20028;-67
2022/11/17 06:45:10;;;;;;;2.65;1.85;;;;;;;3.77;76.09;97249.38;5086903;28;20117;-68
2022/11/17 06:47:35;;;;;;;3.25;2.10;;;;;;;3.72;76.53;97247.53;5089063;28;20031;-67
2022/11/17 06:50:01;;;;;;;4.60;2.33;;;;;;;3.71;76.44;97244.00;5087704;28;20024;-68
2022/11/17 06:52:26;;;;;;;4.20;2.40;;;;;;;3.70;76.68;97255.13;5086341;28;20031;-69
2022/11/17 06:54:52;;;;;;;3.83;2.30;;;;;;;3.71;76.75;97249.41;5083381;28;20036;-66
2022/11/17 06:57:17;;;;;;;2.83;1.98;;;;;;;3.67;76.53;97255.69;5096227;28;20572;-67
2022/11/17 06:59:42;;;;;;;3.00;2.13;;;;;;;3.69;76.04;97257.03;5106643;28;20404;-67
2022/11/17 07:02:08;;;;;;;3.47;2.28;;;;;;;3.69;76.54;97246.16;5092426;28;20047;-67
2022/11/17 07:04:33;;;;;;;3.53;2.00;;;;;;;3.72;76.65;97258.38;5092120;28;20051;-67
2022/11/17 07:06:59;;;;;;;3.97;2.40;;;;;;;3.71;76.55;97260.25;5090933;28;20061;-68
2022/11/17 07:09:25;;;;;;;3.25;2.38;;;;;;;3.69;76.14;97267.06;5095207;28;20384;-68
2022/11/17 07:11:50;;;;;;;3.67;2.45;;;;;;;3.66;76.26;97259.50;5093045;28;20032;-67
2022/11/17 07:14:16;;;;;;;3.33;2.17;;;;;;;3.68;76.21;97262.72;5087767;28;20024;-68
2022/11/17 07:16:44;;;;;;;3.05;2.30;;;;;;;3.67;76.21;97259.19;5092634;28;20028;-67
2022/11/17 07:19:10;;;;;;;4.47;2.90;;;;;;;3.68;76.79;97266.25;5091207;28;20172;-67
2022/11/17 07:21:35;;;;;;;7.35;3.08;;;;;;;3.69;76.72;97278.72;5093509;28;20099;-70
2022/11/17 07:24:02;;;;;;;5.60;2.88;;;;;;;3.67;76.06;97277.38;5071115;28;20039;-68
2022/11/17 07:26:27;;;;;;;6.00;2.40;;;;;;;3.65;76.17;97279.56;5091529;28;20098;-68
2022/11/17 07:28:53;;;;;;;3.85;2.28;;;;;;;3.64;76.12;97288.78;5090207;28;20024;-68
2022/11/17 07:31:18;;;;;;;7.28;4.53;;;;;;;3.63;76.25;97289.88;5090290;28;20024;-68
2022/11/17 07:33:43;;;;;;;4.00;2.72;;;;;;;3.65;75.90;97293.13;5072332;28;20538;-67
2022/11/17 07:36:11;;;;;;;4.05;2.38;;;;;;;3.65;76.41;97293.94;5091395;28;20020;-67
2022/11/17 07:38:38;;;;;;;4.47;2.25;;;;;;;3.66;76.58;97295.56;5091397;28;20024;-68
2022/11/17 07:41:05;;;;;;;5.70;3.15;;;;;;;3.68;76.56;97282.50;5091964;28;20036;-68
2022/11/17 07:43:32;;;;;;;6.03;3.30;;;;;;;3.71;76.22;97281.94;5091135;28;20032;-69
2022/11/17 07:45:57;;;;;;;9.93;6.72;;;;;;;3.71;76.53;97290.09;5091454;28;20498;-68
2022/11/17 07:48:23;;;;;;;5.47;3.83;;;;;;;3.72;76.04;97297.13;5091076;28;20024;-68
2022/11/17 07:50:48;;;;;;;15.30;8.30;;;;;;;3.72;76.13;97293.63;5089870;28;20541;-69
2022/11/17 07:53:14;;;;;;;11.23;7.07;;;;;;;3.75;76.29;97297.66;5091179;28;20038;-67
2022/11/17 07:55:39;;;;;;;7.32;5.45;;;;;;;3.77;76.30;97290.88;5073671;28;20111;-68
2022/11/17 07:58:04;;;;;;;4.10;3.20;;;;;;;3.81;75.96;97302.81;5091424;28;20050;-67
2022/11/17 08:00:32;;;;;;;5.30;3.95;;;;;;;3.85;76.63;97300.31;5091296;28;20035;-68
2022/11/17 08:03:02;;;;;;;4.65;2.83;;;;;;;3.88;76.18;97297.84;5091621;28;20089;-68
2022/11/17 08:05:29;;;;;;;3.75;2.50;;;;;;;3.92;76.03;97300.81;5090453;28;20043;-67
2022/11/17 08:07:56;;;;;;;5.82;3.25;;;;;;;3.93;76.24;97294.31;5091152;28;20024;-67
2022/11/17 08:10:22;;;;;;;4.43;2.33;;;;;;;3.92;75.79;97300.00;5090882;28;20069;-69
2022/11/17 08:12:51;;;;;;;2.70;2.13;;;;;;;3.90;76.25;97294.03;5090497;28;20036;-68
2022/11/17 08:15:16;;;;;;;3.30;2.38;;;;;;;3.90;76.27;97291.34;5090728;28;20109;-68
2022/11/17 08:17:42;;;;;;;6.63;3.40;;;;;;;3.86;76.03;97302.78;5090923;28;20048;-67
2022/11/17 08:20:08;;;;;;;4.68;2.63;;;;;;;3.82;75.37;97304.41;5090984;28;20028;-66
2022/11/17 08:22:33;;;;;;;6.60;3.00;;;;;;;3.77;76.20;97301.75;5091579;28;20435;-67
2022/11/17 08:24:58;;;;;;;6.60;3.55;;;;;;;3.71;75.53;97302.84;5087718;28;20089;-68
2022/11/17 08:27:25;;;;;;;8.23;4.10;;;;;;;3.61;75.47;97300.19;5090937;28;20034;-68
2022/11/17 08:29:50;;;;;;;10.95;4.72;;;;;;;3.54;75.18;97301.31;5091009;28;20034;-68
2022/11/17 08:32:16;;;;;;;5.95;3.58;;;;;;;3.46;75.20;97296.47;5090889;28;20364;-68
2022/11/17 08:34:41;;;;;;;9.23;5.55;;;;;;;3.43;75.34;97287.00;5089278;28;20086;-68
2022/11/17 08:37:06;;;;;;;7.43;5.90;;;;;;;3.39;75.44;97285.94;5089509;28;20028;-68
2022/11/17 08:39:32;;;;;;;3.90;2.40;;;;;;;3.41;75.90;97288.38;5090720;28;20031;-68
2022/11/17 08:41:57;;;;;;;13.85;12.32;;;;;;;3.38;75.83;97292.44;5088811;28;20459;-68
2022/11/17 08:44:23;;;;;;;5.75;5.15;;;;;;;3.37;75.69;97293.53;5068106;28;20040;-69
2022/11/17 08:46:48;;;;;;;4.85;4.18;;;;;;;3.35;75.69;97301.13;5088757;28;20035;-69
2022/11/17 08:49:14;;;;;;;2.30;2.00;;;;;;;3.32;74.98;97307.09;5088132;28;20051;-67
2022/11/17 08:51:39;;;;;;;3.83;2.95;;;;;;;3.30;75.08;97303.03;5089066;28;20039;-68
2022/11/17 08:54:04;;;;;;;4.30;2.45;;;;;;;3.28;75.04;97306.84;5086423;28;20103;-68
2022/11/17 08:56:30;;;;;;;3.28;2.80;;;;;;;3.29;75.63;97313.06;5089003;28;20460;-67
2022/11/17 08:58:55;;;;;;;3.20;2.15;;;;;;;3.30;75.18;97316.59;5088837;28;20054;-68
2022/11/17 09:01:21;;;;;;;2.42;1.85;;;;;;;3.28;75.61;97325.00;5090064;28;20496;-69
2022/11/17 09:03:47;;;;;;;4.05;2.75;;;;;;;3.29;75.34;97323.91;5089451;28;20432;-68
2022/11/17 09:06:14;;;;;;;3.85;2.53;;;;;;;3.30;74.96;97325.53;5088364;28;20084;-68
2022/11/17 09:08:40;;;;;;;3.15;2.65;;;;;;;3.30;74.86;97316.59;5089450;28;20545;-68
2022/11/17 09:11:10;;;;;;;4.90;2.88;;;;;;;3.34;74.74;97320.38;5088870;28;20036;-68
2022/11/17 09:13:36;;;;;;;3.78;2.08;;;;;;;3.36;75.64;97319.00;5089539;28;20448;-68
2022/11/17 09:16:02;;;;;;;5.68;2.72;;;;;;;3.40;74.71;97319.28;5089050;28;20028;-72
2022/11/17 09:18:28;;;;;;;4.50;2.50;;;;;;;3.40;74.85;97320.06;5090193;28;20020;-68
2022/11/17 09:21:01;;;;;;;3.65;2.40;;;;;;;3.39;74.80;97318.44;5089963;28;20036;-69
2022/11/17 09:23:28;;;;;;;3.72;2.58;;;;;;;3.43;75.41;97314.09;5087202;28;20119;-68
2022/11/17 09:25:54;;;;;;;4.13;2.65;;;;;;;3.46;75.46;97320.06;5072257;28;20023;-68
2022/11/17 09:28:19;;;;;;;4.18;2.75;;;;;;;3.47;74.47;97314.34;5089645;28;20048;-68
2022/11/17 09:30:44;;;;;;;3.88;2.42;;;;;;;3.50;75.10;97319.22;5088457;28;20112;-67
2022/11/17 09:33:10;;;;;;;3.30;2.15;;;;;;;3.55;75.31;97330.03;5090675;28;20028;-68
2022/11/17 09:35:35;;;;;;;3.25;2.28;;;;;;;3.59;75.22;97324.88;5090336;28;20039;-67
2022/11/17 09:38:00;;;;;;;3.38;2.50;;;;;;;3.62;74.45;97321.63;5089410;28;20060;-67
2022/11/17 09:40:26;;;;;;;4.45;2.70;;;;;;;3.64;74.13;97329.47;5090123;28;20035;-68
2022/11/17 09:42:52;;;;;;;3.58;2.35;;;;;;;3.66;74.73;97324.56;5090539;28;20024;-68
2022/11/17 09:45:48;;;;;;;4.32;3.13;;;;;;;3.66;74.30;97322.69;5089711;28;20051;-68
2022/11/17 09:48:19;;;;;;;4.60;3.30;;;;;;;3.68;74.38;97319.69;5071733;28;20040;-68
2022/11/17 09:50:46;;;;;;;5.65;2.60;;;;;;;3.66;74.32;97321.84;5089748;28;20120;-68
2022/11/17 09:53:34;;;;;;;4.65;3.05;;;;;;;3.66;74.83;97325.41;5089664;28;20024;-68
2022/11/17 09:56:02;;;;;;;3.63;1.90;;;;;;;3.70;74.14;97318.28;5090036;28;20032;-66
2022/11/17 09:58:46;;;;;;;2.20;1.70;;;;;;;3.71;74.95;97328.06;5088636;28;20034;-67
2022/11/17 10:01:13;;;;;;;3.30;2.13;;;;;;;3.72;74.13;97326.16;5089507;28;20024;-66
2022/11/17 10:03:40;;;;;;;3.95;2.40;;;;;;;3.73;74.36;97330.50;5090055;28;20541;-68
2022/11/17 10:06:12;;;;;;;3.40;2.70;;;;;;;3.70;73.86;97328.34;5089693;28;20028;-66
2022/11/17 10:09:25;;;;;;;5.57;3.28;;;;;;;3.72;74.50;97315.31;5081724;28;20048;-65
2022/11/17 10:11:53;;;;;;;5.47;3.40;;;;;;;3.76;74.76;97324.53;5074370;28;20086;-66
2022/11/17 10:14:22;;;;;;;7.30;4.20;;;;;;;3.78;74.57;97319.63;5094776;28;20028;-65
2022/11/17 10:16:55;;;;;;;6.53;3.60;;;;;;;3.78;74.80;97311.50;5097055;28;20726;-66
2022/11/17 10:19:22;;;;;;;10.27;5.15;;;;;;;3.78;74.51;97316.09;5087137;28;20059;-66
2022/11/17 10:21:52;;;;;;;20.95;9.63;;;;;;;3.76;74.29;97304.72;5088832;28;20108;-65
2022/11/17 10:24:38;;;;;;;6.25;4.25;;;;;;;3.73;73.70;97306.91;5083478;28;20495;-67
2022/11/17 10:27:31;;;;;;;5.38;3.70;;;;;;;3.73;74.25;97309.59;5080971;28;20089;-65
2022/11/17 10:30:01;;;;;;;3.40;2.40;;;;;;;3.75;73.25;97322.91;5075867;28;20047;-66
2022/11/17 10:32:30;;;;;;;3.88;3.03;;;;;;;3.74;74.08;97318.56;5086955;28;20492;-66
2022/11/17 10:35:11;;;;;;;5.15;3.72;;;;;;;3.75;73.33;97317.47;5085881;28;20028;-65
2022/11/17 10:37:42;;;;;;;3.38;2.38;;;;;;;3.78;73.62;97307.97;5094870;28;20032;-65
2022/11/17 10:40:16;;;;;;;5.10;3.50;;;;;;;3.85;73.71;97317.44;5089859;28;20491;-66
2022/11/17 10:42:52;;;;;;;4.65;3.35;;;;;;;3.94;74.06;97308.66;5086900;28;20074;-66
2022/11/17 10:45:17;;;;;;;4.38;2.45;;;;;;;3.96;73.26;97315.44;5091210;28;20052;-66
2022/11/17 10:47:43;;;;;;;5.55;3.47;;;;;;;3.98;73.87;97304.31;5072925;28;20036;-66
2022/11/17 10:50:24;;;;;;;3.95;2.67;;;;;;;3.97;73.17;97302.69;5091236;28;20020;-65
2022/11/17 10:52:52;;;;;;;5.45;3.35;;;;;;;3.97;73.73;97308.09;5091861;28;20032;-66
2022/11/17 10:55:23;;;;;;;7.75;3.75;;;;;;;3.97;73.03;97298.09;5090246;28;20035;-66
2022/11/17 10:57:56;;;;;;;6.70;4.20;;;;;;;3.95;72.95;97292.13;5096544;28;20487;-67
2022/11/17 11:00:30;;;;;;;7.43;4.47;;;;;;;3.95;73.23;97296.72;5111449;28;20030;-68
2022/11/17 11:03:20;;;;;;;5.72;3.28;;;;;;;3.98;73.08;97298.88;5112161;28;20423;-69
2022/11/17 11:05:57;;;;;;;6.88;3.78;;;;;;;4.01;73.82;97307.28;5093290;28;20031;-66
2022/11/17 11:08:26;;;;;;;5.72;2.95;;;;;;;4.05;73.61;97304.81;5096601;28;20031;-65
2022/11/17 11:10:54;;;;;;;5.25;2.75;;;;;;;4.07;73.04;97305.34;5094205;28;20024;-66
2022/11/17 11:13:26;;;;;;;3.90;2.53;;;;;;;4.13;73.10;97306.94;5098504;28;20063;-67
2022/11/17 11:15:52;;;;;;;5.93;2.55;;;;;;;4.17;72.81;97313.41;5072951;28;20400;-67
2022/11/17 11:18:19;;;;;;;3.97;2.03;;;;;;;4.13;72.34;97308.81;5091407;28;20032;-67
2022/11/17 11:20:54;;;;;;;3.60;2.38;;;;;;;4.08;72.42;97306.13;5091382;28;20028;-67
2022/11/17 11:23:46;;;;;;;5.80;3.45;;;;;;;4.03;72.31;97304.28;5093131;28;20107;-67
2022/11/17 11:26:28;;;;;;;19.42;13.85;;;;;;;4.00;72.34;97302.13;5092503;28;20491;-67
2022/11/17 11:29:01;;;;;;;11.35;7.90;;;;;;;4.01;72.47;97320.03;5092005;28;20032;-66
2022/11/17 11:31:48;;;;;;;6.10;4.90;;;;;;;3.99;72.72;97312.19;5092138;28;20039;-66
2022/11/17 11:34:19;;;;;;;8.40;6.15;;;;;;;3.98;72.52;97315.16;5092459;28;20027;-66
2022/11/17 11:36:59;;;;;;;7.18;6.25;;;;;;;3.95;72.61;97311.13;5092540;28;20028;-66
2022/11/17 11:39:30;;;;;;;8.32;6.20;;;;;;;4.01;72.71;97309.16;5073697;28;20487;-66
2022/11/17 11:42:24;;;;;;;7.72;5.00;;;;;;;4.06;72.77;97314.56;5091634;28;20057;-66
2022/11/17 11:45:05;;;;;;;7.95;5.25;;;;;;;4.07;72.98;97327.03;5089646;28;20115;-67
2022/11/17 11:47:34;;;;;;;24.05;9.82;;;;;;;4.07;72.89;97324.34;5091776;28;20065;-67
2022/11/17 11:50:18;;;;;;;22.83;8.75;;;;;;;4.07;72.69;97332.47;5091308;28;20468;-66
2022/11/17 11:52:48;;;;;;;46.80;17.02;;;;;;;4.09;72.24;97318.59;5073135;28;20055;-66
2022/11/17 11:55:24;;;;;;;74.50;27.05;;;;;;;4.11;72.78;97313.72;5091812;28;20480;-67
2022/11/17 11:57:59;;;;;;;24.40;10.48;;;;;;;4.14;72.95;97310.44;5091985;28;20139;-66
2022/11/17 12:00:24;;;;;;;11.60;5.88;;;;;;;4.13;72.06;97323.22;5091773;28;20028;-67
2022/11/17 12:03:04;;;;;;;7.18;3.47;;;;;;;4.11;72.31;97317.25;5090711;28;20024;-67
2022/11/17 12:05:39;;;;;;;7.88;4.30;;;;;;;4.09;72.55;97308.56;5073311;28;20127;-67
2022/11/17 12:08:16;;;;;;;9.00;4.50;;;;;;;4.08;72.59;97303.41;5091112;28;20035;-66
2022/11/17 12:10:53;;;;;;;4.53;3.45;;;;;;;4.06;72.15;97311.84;5091862;28;20028;-66
2022/11/17 12:13:21;;;;;;;6.45;3.83;;;;;;;4.04;71.64;97305.91;5091087;28;20572;-66
2022/11/17 12:15:46;;;;;;;5.03;3.63;;;;;;;4.02;72.30;97308.06;5091415;28;20024;-66
2022/11/17 12:18:18;;;;;;;5.35;3.60;;;;;;;3.97;71.75;97308.94;5090984;28;20538;-67
2022/11/17 12:20:55;;;;;;;7.43;4.25;;;;;;;3.88;71.53;97303.28;5090155;28;20032;-67
2022/11/17 12:23:58;;;;;;;6.47;3.80;;;;;;;3.79;71.61;97313.13;5090982;28;20056;-66